Map

Track Data

SID SEASON NUMBER BASIN SUBBASIN NAME ISO_TIME NATURE LAT LON WMO_WIND WMO_PRES WMO_AGENCY TRACK_TYPE DIST2LAND LANDFALL IFLAG USA_AGENCY USA_ATCF_ID USA_LAT USA_LON USA_RECORD USA_STATUS USA_WIND USA_PRES USA_SSHS USA_R34_NE USA_R34_SE USA_R34_SW USA_R34_NW USA_R50_NE USA_R50_SE USA_R50_SW USA_R50_NW USA_R64_NE USA_R64_SE USA_R64_SW USA_R64_NW USA_POCI USA_ROCI USA_RMW USA_EYE TOKYO_LAT TOKYO_LON TOKYO_GRADE TOKYO_WIND TOKYO_PRES TOKYO_R50_DIR TOKYO_R50_LONG TOKYO_R50_SHORT TOKYO_R30_DIR TOKYO_R30_LONG TOKYO_R30_SHORT TOKYO_LAND CMA_LAT CMA_LON CMA_CAT CMA_WIND CMA_PRES HKO_LAT HKO_LON HKO_CAT HKO_WIND HKO_PRES NEWDELHI_LAT NEWDELHI_LON NEWDELHI_GRADE NEWDELHI_WIND NEWDELHI_PRES NEWDELHI_CI NEWDELHI_DP NEWDELHI_POCI REUNION_LAT REUNION_LON REUNION_TYPE REUNION_WIND REUNION_PRES REUNION_TNUM REUNION_CI REUNION_RMW REUNION_R34_NE REUNION_R34_SE REUNION_R34_SW REUNION_R34_NW REUNION_R50_NE REUNION_R50_SE REUNION_R50_SW REUNION_R50_NW REUNION_R64_NE REUNION_R64_SE REUNION_R64_SW REUNION_R64_NW BOM_LAT BOM_LON BOM_TYPE BOM_WIND BOM_PRES BOM_TNUM BOM_CI BOM_RMW BOM_R34_NE BOM_R34_SE BOM_R34_SW BOM_R34_NW BOM_R50_NE BOM_R50_SE BOM_R50_SW BOM_R50_NW BOM_R64_NE BOM_R64_SE BOM_R64_SW BOM_R64_NW BOM_ROCI BOM_POCI BOM_EYE BOM_POS_METHOD BOM_PRES_METHOD NADI_LAT NADI_LON NADI_CAT NADI_WIND NADI_PRES WELLINGTON_LAT WELLINGTON_LON WELLINGTON_WIND WELLINGTON_PRES DS824_LAT DS824_LON DS824_STAGE DS824_WIND DS824_PRES TD9636_LAT TD9636_LON TD9636_STAGE TD9636_WIND TD9636_PRES TD9635_LAT TD9635_LON TD9635_WIND TD9635_PRES TD9635_ROCI NEUMANN_LAT NEUMANN_LON NEUMANN_CLASS NEUMANN_WIND NEUMANN_PRES MLC_LAT MLC_LON MLC_CLASS MLC_WIND MLC_PRES USA_GUST BOM_GUST BOM_GUST_PER REUNION_GUST REUNION_GUST_PER USA_SEAHGT USA_SEARAD_NE USA_SEARAD_SE USA_SEARAD_SW USA_SEARAD_NW STORM_SPEED STORM_DIR
2011041S17113 2011 11 SI WA NOT_NAMED 2011-02-09 12:00:00 NR -17.1000 113.200 main 529 526 O_____________ jtwc_sh SH142011 -17.1000 113.200 DB 20 1007 -3 8 246
2011041S17113 2011 11 SI WA NOT_NAMED 2011-02-09 15:00:00 NR -17.2577 112.838 main 529 524 P_____________ SH142011 -17.2577 112.838 DB 22 1005 -3 7 246
2011041S17113 2011 11 SI WA NOT_NAMED 2011-02-09 18:00:00 NR -17.4000 112.500 main 527 519 O_____________ jtwc_sh SH142011 -17.4000 112.500 DB 25 1004 -3 7 247
2011041S17113 2011 11 SI WA NOT_NAMED 2011-02-09 21:00:00 NR -17.5272 112.187 main 526 518 P_____________ SH142011 -17.5272 112.187 DB 25 1000 -3 7 246
2011041S17113 2011 11 SI WA NOT_NAMED 2011-02-10 00:00:00 NR -17.7000 111.800 main 523 517 O_____________ jtwc_sh SH142011 -17.7000 111.800 DB 25 996 -3 1001 200 50 10 243
2011041S17113 2011 11 SI WA NOT_NAMED 2011-02-10 03:00:00 NR -17.9850 111.245 main 525 521 P_____________ SH142011 -17.9850 111.245 DB 25 997 -3 1001 200 45 13 242
2011041S17113 2011 11 SI WA NOT_NAMED 2011-02-10 06:00:00 NR -18.3000 110.600 main 536 535 O_____________ jtwc_sh SH142011 -18.3000 110.600 DB 25 998 -3 1002 200 40 14 245
2011041S17113 2011 11 SI WA NOT_NAMED 2011-02-10 09:00:00 NR -18.5648 109.957 main 556 556 P_____________ SH142011 -18.5648 109.957 DB 25 998 -3 1002 200 40 13 248
2011041S17113 2011 11 SI WA NOT_NAMED 2011-02-10 12:00:00 TS -18.8000 109.300 main 600 600 O_____________ jtwc_sh SH142011 -18.8000 109.300 TD 25 998 -1 1002 200 40 13 250
2011041S17113 2011 11 SI WA NOT_NAMED 2011-02-10 15:00:00 TS -19.0073 108.650 main 649 649 P_____________ SH142011 -19.0073 108.650 TD 27 999 -1 1002 222 40 13 252
2011041S17113 2011 11 SI WA NOT_NAMED 2011-02-10 18:00:00 TS -19.2000 108.000 main 693 693 O_____________ jtwc_sh SH142011 -19.2000 108.000 TD 30 1000 -1 1003 245 40 13 252
2011041S17113 2011 11 SI WA NOT_NAMED 2011-02-10 21:00:00 TS -19.3994 107.380 main 736 736 P_____________ SH142011 -19.3994 107.380 TD 30 1000 -1 1003 245 40 13 252
2011041S17113 2011 11 SI WA NOT_NAMED 2011-02-11 00:00:00 TS -19.6000 106.700 main 790 790 O_____________ jtwc_sh SH142011 -19.6000 106.700 TD 30 1000 -1 1003 245 40 15 255
2011041S17113 2011 11 SI WA NOT_NAMED 2011-02-11 03:00:00 TS -19.7926 105.872 main 857 857 P_____________ SH142011 -19.7926 105.872 TD 30 1000 -1 1003 245 40 17 256
2011041S17113 2011 11 SI WA NOT_NAMED 2011-02-11 06:00:00 TS -20.0000 105.000 main 936 936 O_____________ jtwc_sh SH142011 -20.0000 105.000 TD 30 1000 -1 1003 245 40 16 253
2011041S17113 2011 11 SI WA NOT_NAMED 2011-02-11 09:00:00 TS -20.2644 104.200 main 1005 1005 P_____________ SH142011 -20.2644 104.200 TD 30 1000 -1 1003 245 35 16 252
2011041S17113 2011 11 SI WA NOT_NAMED 2011-02-11 12:00:00 TS -20.5000 103.400 main 1080 1080 O_____________ jtwc_sh SH142011 -20.5000 103.400 TD 30 1000 -1 1003 245 30 16 257
2011041S17113 2011 11 SI WA NOT_NAMED 2011-02-11 15:00:00 TS -20.6225 102.535 main 1168 1168 P_____________ SH142011 -20.6225 102.535 TD 30 1000 -1 1003 245 32 16 263
2011041S17113 2011 11 SI WA NOT_NAMED 2011-02-11 18:00:00 TS -20.7000 101.700 main 1247 1247 O_____________ jtwc_sh SH142011 -20.7000 101.700 TD 30 1000 -1 1003 245 35 15 263
2011041S17113 2011 11 SI WA NOT_NAMED 2011-02-11 21:00:00 TS -20.7997 100.955 main 1316 1316 P_____________ SH142011 -20.7997 100.955 TD 32 998 -1 1003 245 35 13 261
2011041S17113 2011 11 SI WA NOT_NAMED 2011-02-12 00:00:00 TS -20.9000 100.300 main 1385 1385 O_____________ jtwc_sh SH142011 -20.9000 100.300 TS 35 996 0 1003 245 35 12 260
2011041S17113 2011 11 SI WA NOT_NAMED 2011-02-12 03:00:00 TS -21.0071 99.7275 main 1445 1445 P_____________ SH142011 -21.0071 99.7275 TS 32 998 -1 1003 245 35 10 259
2011041S17113 2011 11 SI WA NOT_NAMED 2011-02-12 06:00:00 TS -21.1000 99.2000 main 1494 1494 O_____________ jtwc_sh SH142011 -21.1000 99.2000 TD 30 1000 -1 1003 245 35 10 262
2011041S17113 2011 11 SI WA NOT_NAMED 2011-02-12 09:00:00 TS -21.1575 98.6349 main 1554 1554 P_____________ SH142011 -21.1575 98.6349 TD 30 1000 -1 1003 242 37 10 264
2011041S17113 2011 11 SI WA NOT_NAMED 2011-02-12 12:00:00 TS -21.2000 98.1000 main 1605 1605 O_____________ jtwc_sh SH142011 -21.2000 98.1000 TD 30 1000 -1 1004 240 40 9 267
2011041S17113 2011 11 SI WA NOT_NAMED 2011-02-12 15:00:00 TS -21.2123 97.6346 main 1656 1656 P_____________ SH142011 -21.2123 97.6346 TD 30 1000 -1 8 263
2011041S17113 2011 11 SI WA NOT_NAMED 2011-02-12 18:00:00 TS -21.3000 97.2000 main 1693 1693 O_____________ jtwc_sh SH142011 -21.3000 97.2000 TD 30 1000 -1 9 245
2011041S17113 2011 11 SI WA NOT_NAMED 2011-02-12 21:00:00 TS -21.5998 96.7580 main 1725 1725 P_____________ SH142011 -21.5998 96.7580 TD 27 1002 -1 10 234
2011041S17113 2011 11 SI WA NOT_NAMED 2011-02-13 00:00:00 TS -21.9000 96.3000 main 1768 1768 O_____________ jtwc_sh SH142011 -21.9000 96.3000 TD 25 1004 -1 10 247
2011041S17113 2011 11 SI WA NOT_NAMED 2011-02-13 03:00:00 TS -21.9876 95.7846 main 1816 1816 P_____________ SH142011 -21.9876 95.7846 TD 25 1004 -1 9 264
2011041S17113 2011 11 SI WA NOT_NAMED 2011-02-13 06:00:00 TS -22.0000 95.3000 main 1866 1866 O_____________ jtwc_sh SH142011 -22.0000 95.3000 TD 25 1004 -1 8 266
2011041S17113 2011 11 SI WA NOT_NAMED 2011-02-13 09:00:00 TS -22.0375 94.9177 main 1907 1907 P_____________ SH142011 -22.0375 94.9177 TD 22 1005 -1 7 261
2011041S17113 2011 11 SI WA NOT_NAMED 2011-02-13 12:00:00 NR -22.1000 94.6000 main 1935 O_____________ jtwc_sh SH142011 -22.1000 94.6000 DB 20 1007 -3 6 258

About IBTrACS Database

This database is a web-friendly format of International Best Track Archive for Climate Stewardship (IBTrACS), a global best track data archive curated by NOAA dating back to 1842.

Updated: 2021-11-26